Time;durP1;ratioP1;P1;durP2;ratioP2;P2;SDS_P1;SDS_P2;PMS_P1;PMS_P2;Temp;Humidity;BMP_temperature;BMP_pressure;BME280_temperature;BME280_humidity;BME280_pressure;Samples;Min_cycle;Max_cycle;Signal;HPM_P1;HPM_P2
2022/12/22 03:26:20;;;;;;;544.72;85.10;;;8.60;99.90;;;;;;5030425;28;20111;-67
2022/12/22 03:28:46;;;;;;;534.08;82.45;;;8.60;99.90;;;;;;5029734;28;20045;-67
2022/12/22 03:31:12;;;;;;;338.05;62.13;;;8.60;99.90;;;;;;5029152;28;20041;-67
2022/12/22 03:33:38;;;;;;;303.85;64.40;;;8.60;99.90;;;;;;5030639;28;20041;-67
2022/12/22 03:36:06;;;;;;;450.67;80.55;;;8.60;99.90;;;;;;5029976;28;20049;-67
2022/12/22 03:38:32;;;;;;;348.80;66.22;;;8.60;99.90;;;;;;5029862;28;20045;-67
2022/12/22 03:40:58;;;;;;;277.98;61.35;;;8.60;99.90;;;;;;5029051;28;20643;-67
2022/12/22 03:48:39;;;;;;;657.10;83.47;;;8.60;99.90;;;;;;5030444;28;20045;-67
2022/12/22 03:51:06;;;;;;;469.45;76.85;;;8.60;99.90;;;;;;5028483;28;20639;-66
2022/12/22 03:53:32;;;;;;;186.50;51.92;;;8.70;99.90;;;;;;5028749;28;20041;-66
2022/12/22 03:55:57;;;;;;;325.00;59.08;;;8.70;99.90;;;;;;5028946;28;20041;-66
2022/12/22 03:58:23;;;;;;;448.58;76.47;;;8.60;99.90;;;;;;5029203;28;20045;-66
2022/12/22 04:00:49;;;;;;;373.27;74.88;;;8.60;99.90;;;;;;5029951;28;20547;-67
2022/12/22 04:03:16;;;;;;;526.20;87.88;;;8.70;99.90;;;;;;5030152;28;20096;-66
2022/12/22 04:05:42;;;;;;;590.58;81.97;;;8.60;99.90;;;;;;5029160;28;20042;-66
2022/12/22 04:08:08;;;;;;;345.08;71.03;;;8.60;99.90;;;;;;5028797;28;20048;-66
2022/12/22 04:13:18;;;;;;;398.75;73.38;;;8.60;99.90;;;;;;5029993;28;20044;-66
2022/12/22 04:15:43;;;;;;;590.40;82.43;;;8.60;99.90;;;;;;5029841;28;20041;-66
2022/12/22 04:18:09;;;;;;;332.05;62.08;;;8.60;99.90;;;;;;5028452;28;20049;-66
2022/12/22 04:20:35;;;;;;;260.15;59.80;;;8.60;99.90;;;;;;5029375;28;20049;-66
2022/12/22 04:23:01;;;;;;;565.50;88.90;;;8.60;99.90;;;;;;5028605;28;20048;-66
2022/12/22 04:25:28;;;;;;;295.02;61.13;;;8.60;99.90;;;;;;5029964;28;20505;-66
2022/12/22 04:27:54;;;;;;;393.08;67.60;;;8.60;99.90;;;;;;5033944;28;20042;-66
2022/12/22 04:30:20;;;;;;;404.10;74.20;;;8.60;99.90;;;;;;5032537;28;20067;-66
2022/12/22 04:32:45;;;;;;;524.42;74.13;;;8.50;99.90;;;;;;5033939;28;20116;-66
2022/12/22 04:35:11;;;;;;;337.73;62.25;;;8.60;99.90;;;;;;5032961;28;20068;-66
2022/12/22 04:37:37;;;;;;;485.45;74.80;;;8.60;99.90;;;;;;5033883;28;20046;-66
2022/12/22 04:40:03;;;;;;;449.70;62.60;;;8.60;99.90;;;;;;5048850;28;20052;-66
2022/12/22 04:42:29;;;;;;;346.45;57.47;;;8.60;99.90;;;;;;5032381;28;20132;-66
2022/12/22 04:44:55;;;;;;;368.42;55.80;;;8.60;99.90;;;;;;5032087;28;20438;-66
2022/12/22 04:47:21;;;;;;;234.43;50.13;;;8.50;99.90;;;;;;5033668;28;20034;-66
2022/12/22 04:49:46;;;;;;;414.10;59.90;;;8.50;99.90;;;;;;5031560;28;20425;-66
2022/12/22 04:52:12;;;;;;;228.45;47.10;;;8.50;99.90;;;;;;5032540;28;20076;-66
2022/12/22 04:54:38;;;;;;;388.83;56.05;;;8.50;99.90;;;;;;5033445;28;20482;-66
2022/12/22 04:57:04;;;;;;;291.65;54.80;;;8.50;99.90;;;;;;5032308;28;20037;-66
2022/12/22 04:59:30;;;;;;;174.70;43.38;;;8.50;99.90;;;;;;5032179;28;20041;-66
2022/12/22 05:01:55;;;;;;;158.13;46.35;;;8.50;99.90;;;;;;5033535;28;20037;-66
2022/12/22 05:04:21;;;;;;;152.38;41.38;;;8.40;99.90;;;;;;5031607;28;20377;-66
2022/12/22 05:06:47;;;;;;;152.85;40.78;;;8.40;99.90;;;;;;5033054;28;20529;-67
2022/12/22 05:09:13;;;;;;;209.55;46.38;;;8.40;99.90;;;;;;5033410;28;20040;-66
2022/12/22 05:11:39;;;;;;;139.98;40.47;;;8.40;99.90;;;;;;5031895;28;20046;-67
2022/12/22 05:14:04;;;;;;;109.50;37.72;;;8.40;99.90;;;;;;5032860;28;20112;-67
2022/12/22 05:16:30;;;;;;;111.82;40.08;;;8.30;99.90;;;;;;5031628;28;20060;-67
2022/12/22 05:18:56;;;;;;;99.68;35.38;;;8.30;99.90;;;;;;5032551;28;20112;-66
2022/12/22 05:21:22;;;;;;;97.22;33.58;;;8.20;99.90;;;;;;5031636;28;20041;-67
2022/12/22 05:23:49;;;;;;;101.63;34.63;;;8.20;99.90;;;;;;5033160;28;20038;-67
2022/12/22 05:26:17;;;;;;;91.20;31.92;;;8.10;99.90;;;;;;5032810;28;20114;-67
2022/12/22 05:28:44;;;;;;;95.22;33.65;;;8.10;99.90;;;;;;5032912;28;20065;-67
2022/12/22 05:31:15;;;;;;;100.95;34.92;;;8.10;99.90;;;;;;5032581;28;20123;-66
2022/12/22 05:33:41;;;;;;;94.97;33.08;;;8.10;99.90;;;;;;5031235;28;20037;-66
2022/12/22 05:36:07;;;;;;;97.97;31.35;;;8.00;99.90;;;;;;5031308;28;20064;-66
2022/12/22 05:38:33;;;;;;;120.40;34.10;;;8.10;99.90;;;;;;5032665;28;20085;-66
2022/12/22 05:40:58;;;;;;;81.93;31.65;;;8.00;99.90;;;;;;5031432;28;20134;-66
2022/12/22 05:43:24;;;;;;;106.97;32.47;;;8.00;99.90;;;;;;5031150;28;20423;-66
2022/12/22 05:45:51;;;;;;;78.82;29.55;;;8.00;99.90;;;;;;5030988;28;20045;-66
2022/12/22 05:48:18;;;;;;;78.22;28.55;;;8.00;99.90;;;;;;5030711;28;20037;-66
2022/12/22 05:50:44;;;;;;;67.85;27.58;;;8.00;99.90;;;;;;5032426;28;20029;-67
2022/12/22 05:53:10;;;;;;;101.95;33.25;;;7.90;99.90;;;;;;5031236;28;20045;-67
2022/12/22 05:55:36;;;;;;;60.22;26.98;;;7.80;99.90;;;;;;5030831;28;20071;-67
2022/12/22 05:58:02;;;;;;;75.30;27.88;;;7.80;99.90;;;;;;5032874;28;20051;-67
2022/12/22 06:00:30;;;;;;;59.28;24.20;;;7.80;99.90;;;;;;5032180;28;20041;-67
2022/12/22 06:02:56;;;;;;;102.10;31.00;;;7.70;99.90;;;;;;5031506;28;20060;-66
2022/12/22 06:05:22;;;;;;;62.80;24.35;;;7.60;99.90;;;;;;5030583;28;20041;-67
2022/12/22 06:07:48;;;;;;;102.43;27.95;;;7.60;99.90;;;;;;5030947;28;20060;-67
2022/12/22 06:10:14;;;;;;;660.65;72.30;;;7.50;99.90;;;;;;5032286;28;20120;-67
2022/12/22 06:12:41;;;;;;;151.38;27.65;;;7.30;99.90;;;;;;5030555;28;20505;-66
2022/12/22 06:15:10;;;;;;;570.38;56.85;;;7.20;99.90;;;;;;5030848;28;20047;-66
2022/12/22 06:17:36;;;;;;;375.73;44.13;;;7.00;99.90;;;;;;5029997;28;20049;-66
2022/12/22 06:20:03;;;;;;;766.30;69.03;;;6.80;99.90;;;;;;5030446;28;20049;-67
2022/12/22 06:22:29;;;;;;;802.53;72.20;;;6.70;99.90;;;;;;5030637;28;20068;-66
2022/12/22 06:24:54;;;;;;;464.73;42.53;;;6.50;99.90;;;;;;5030309;28;20600;-66
2022/12/22 06:27:20;;;;;;;351.75;34.70;;;6.30;99.90;;;;;;5030263;28;20041;-66
2022/12/22 06:29:46;;;;;;;623.58;61.00;;;6.20;99.90;;;;;;5030354;28;20048;-66
2022/12/22 06:32:12;;;;;;;421.35;36.35;;;6.00;99.90;;;;;;5030023;28;20084;-66
2022/12/22 06:34:37;;;;;;;210.48;27.30;;;5.90;99.90;;;;;;5031742;28;20086;-66
2022/12/22 06:37:03;;;;;;;77.45;22.48;;;5.80;99.90;;;;;;5031116;28;20115;-66
2022/12/22 06:39:29;;;;;;;93.28;21.77;;;5.80;99.90;;;;;;5030333;28;20055;-66
2022/12/22 06:44:39;;;;;;;334.92;51.25;;;5.70;99.90;;;;;;5030138;28;20051;-65
2022/12/22 06:47:05;;;;;;;330.95;42.40;;;5.90;99.90;;;;;;5030765;28;20397;-66
2022/12/22 06:49:30;;;;;;;583.70;72.82;;;6.00;99.90;;;;;;5029077;28;20047;-66
2022/12/22 06:51:56;;;;;;;379.58;47.22;;;6.10;99.90;;;;;;5031314;28;20030;-66
2022/12/22 06:54:22;;;;;;;289.48;40.13;;;6.20;99.90;;;;;;5029829;28;20414;-66
2022/12/22 06:56:48;;;;;;;350.00;42.90;;;6.20;99.90;;;;;;5031165;28;20045;-66
2022/12/22 06:59:14;;;;;;;336.48;40.03;;;6.30;99.90;;;;;;5031026;28;20536;-66
2022/12/22 07:01:41;;;;;;;327.42;37.67;;;6.30;99.90;;;;;;5030634;28;20116;-68
2022/12/22 07:04:08;;;;;;;313.92;36.00;;;6.30;99.90;;;;;;5030778;28;20045;-65
2022/12/22 07:06:34;;;;;;;311.45;41.08;;;6.30;99.90;;;;;;5031286;28;20465;-65
2022/12/22 07:09:00;;;;;;;305.60;41.83;;;6.30;99.90;;;;;;5029546;28;20077;-65
2022/12/22 07:11:25;;;;;;;261.85;41.58;;;6.20;99.90;;;;;;5030629;28;20080;-66
2022/12/22 07:13:51;;;;;;;271.58;38.83;;;6.20;99.90;;;;;;5029405;28;20057;-66
2022/12/22 07:16:17;;;;;;;180.00;24.42;;;6.20;99.90;;;;;;5029401;28;20038;-66
2022/12/22 07:18:43;;;;;;;224.95;36.38;;;6.10;99.90;;;;;;5030639;28;20052;-66
2022/12/22 07:21:11;;;;;;;146.32;28.13;;;6.10;99.90;;;;;;5029209;28;20048;-66
2022/12/22 07:23:38;;;;;;;147.68;24.75;;;6.00;99.90;;;;;;5029327;28;20197;-66
2022/12/22 07:26:06;;;;;;;135.18;20.98;;;6.00;99.90;;;;;;5029093;28;20051;-66
2022/12/22 07:28:33;;;;;;;141.30;26.15;;;5.90;99.90;;;;;;5028996;28;20152;-66
2022/12/22 07:30:59;;;;;;;228.77;27.23;;;5.90;99.90;;;;;;5029074;28;20072;-66
2022/12/22 07:33:25;;;;;;;127.43;20.02;;;5.90;99.90;;;;;;5029000;28;20072;-66
2022/12/22 07:36:19;;;;;;;393.75;42.33;;;5.90;99.90;;;;;;5030043;28;20053;-66
2022/12/22 07:38:48;;;;;;;261.10;31.95;;;5.90;99.90;;;;;;5037218;28;20064;-66
2022/12/22 07:44:01;;;;;;;228.63;33.30;;;6.00;99.90;;;;;;5028421;28;20508;-66
2022/12/22 07:46:29;;;;;;;202.18;30.35;;;6.00;99.90;;;;;;5028937;28;20477;-66
2022/12/22 07:51:40;;;;;;;196.57;27.80;;;6.00;99.90;;;;;;5028978;28;20453;-65
2022/12/22 07:54:08;;;;;;;206.48;30.15;;;6.00;99.90;;;;;;5028751;28;20045;-65
2022/12/22 07:56:34;;;;;;;194.55;26.00;;;6.00;99.90;;;;;;5030261;28;20099;-66
2022/12/22 07:59:01;;;;;;;184.07;24.92;;;6.00;99.90;;;;;;5028221;28;20486;-66
2022/12/22 08:01:26;;;;;;;283.98;29.20;;;6.10;99.90;;;;;;5028590;28;20563;-66
2022/12/22 08:03:52;;;;;;;305.83;31.15;;;6.10;99.90;;;;;;5030027;28;20029;-65
2022/12/22 08:06:18;;;;;;;182.20;23.50;;;6.10;99.90;;;;;;5028506;28;20048;-67
2022/12/22 08:08:44;;;;;;;176.85;23.40;;;6.20;99.90;;;;;;5028397;28;20041;-66
2022/12/22 08:11:10;;;;;;;248.45;28.67;;;6.20;99.90;;;;;;5029697;28;20046;-66
2022/12/22 08:13:36;;;;;;;161.70;22.13;;;6.20;99.90;;;;;;5011767;28;20124;-67
2022/12/22 08:16:07;;;;;;;212.30;27.80;;;6.20;99.90;;;;;;5028675;28;20397;-66
2022/12/22 08:18:34;;;;;;;342.77;33.40;;;6.20;99.90;;;;;;5028746;28;20142;-67
2022/12/22 08:21:01;;;;;;;428.77;40.08;;;6.30;99.90;;;;;;5028597;28;20134;-66
2022/12/22 08:23:27;;;;;;;309.73;30.75;;;6.30;99.90;;;;;;5029866;28;20046;-67
2022/12/22 08:26:27;;;;;;;174.48;21.02;;;6.30;99.90;;;;;;5029470;28;20049;-67
2022/12/22 08:29:00;;;;;;;170.68;21.52;;;6.40;99.90;;;;;;5028320;28;20053;-66
2022/12/22 08:31:27;;;;;;;379.25;33.63;;;6.40;99.90;;;;;;5028143;28;20038;-66
2022/12/22 08:33:55;;;;;;;388.73;35.08;;;6.40;99.90;;;;;;5028399;28;20042;-66
2022/12/22 08:36:22;;;;;;;186.38;22.17;;;6.50;99.90;;;;;;5028110;28;20386;-66
2022/12/22 08:38:48;;;;;;;232.82;26.88;;;6.50;99.90;;;;;;5028275;28;20049;-66
2022/12/22 08:41:15;;;;;;;337.40;48.35;;;6.50;99.90;;;;;;5028957;28;20129;-67
2022/12/22 08:43:40;;;;;;;246.85;72.55;;;6.60;99.90;;;;;;5028409;28;20399;-66
2022/12/22 08:46:06;;;;;;;143.50;21.70;;;6.50;99.90;;;;;;5028370;28;20045;-66
2022/12/22 08:48:32;;;;;;;194.45;25.15;;;6.50;99.90;;;;;;5028224;28;20045;-66
2022/12/22 08:50:58;;;;;;;215.27;45.42;;;6.50;99.90;;;;;;5028101;28;20072;-66
2022/12/22 08:53:24;;;;;;;205.27;33.25;;;6.60;99.90;;;;;;5028349;28;20079;-67
2022/12/22 08:55:54;;;;;;;120.32;30.60;;;6.60;99.90;;;;;;5027908;28;20060;-67
2022/12/22 08:58:21;;;;;;;147.13;23.85;;;6.60;99.90;;;;;;5028560;28;20136;-66
2022/12/22 09:00:47;;;;;;;225.00;26.73;;;6.60;99.90;;;;;;5028256;28;20033;-66
2022/12/22 09:03:13;;;;;;;105.82;23.20;;;6.60;99.90;;;;;;5027844;28;20037;-66
2022/12/22 09:05:40;;;;;;;139.63;18.52;;;6.60;99.90;;;;;;5027806;28;20114;-66
2022/12/22 09:08:07;;;;;;;176.23;24.98;;;6.70;99.90;;;;;;5028161;28;20068;-66
2022/12/22 09:10:33;;;;;;;112.18;18.48;;;6.70;99.90;;;;;;5027494;28;20616;-67
2022/12/22 09:12:59;;;;;;;78.03;16.98;;;6.70;99.90;;;;;;5030629;28;20114;-67
2022/12/22 09:15:24;;;;;;;153.15;25.55;;;6.70;99.90;;;;;;5031849;28;20049;-66
2022/12/22 09:17:50;;;;;;;123.95;21.58;;;6.70;99.90;;;;;;5032953;28;20219;-66
2022/12/22 09:20:16;;;;;;;70.85;16.65;;;6.70;99.90;;;;;;5015444;28;20045;-66
2022/12/22 09:22:42;;;;;;;113.45;19.70;;;6.70;99.90;;;;;;5032701;28;20386;-66
2022/12/22 09:25:08;;;;;;;175.15;23.88;;;6.70;99.90;;;;;;5030962;28;20053;-66
2022/12/22 09:27:34;;;;;;;152.13;22.02;;;6.70;99.90;;;;;;5031403;28;20562;-66
2022/12/22 09:30:00;;;;;;;156.32;22.95;;;6.70;99.90;;;;;;5031603;28;20041;-66
2022/12/22 09:32:27;;;;;;;158.48;25.65;;;6.70;99.90;;;;;;5031133;28;20406;-66
2022/12/22 09:34:52;;;;;;;47.80;16.45;;;6.70;99.90;;;;;;5030977;28;20049;-66
2022/12/22 09:37:18;;;;;;;78.47;18.13;;;6.80;99.90;;;;;;5031056;28;20053;-66
2022/12/22 09:39:45;;;;;;;68.18;16.30;;;6.90;99.90;;;;;;5030818;28;20081;-67
2022/12/22 09:42:18;;;;;;;50.28;15.05;;;6.90;99.90;;;;;;5031167;28;20045;-67
2022/12/22 09:44:49;;;;;;;57.38;16.13;;;7.00;99.90;;;;;;5030991;28;20101;-66
2022/12/22 09:47:27;;;;;;;117.70;23.00;;;7.00;99.90;;;;;;5032448;28;20367;-66
2022/12/22 09:49:56;;;;;;;64.75;19.05;;;7.10;99.90;;;;;;5031163;28;20037;-66
2022/12/22 09:52:47;;;;;;;48.08;14.57;;;7.10;99.90;;;;;;5032124;28;20051;-66
2022/12/22 09:55:19;;;;;;;37.47;12.77;;;7.10;99.90;;;;;;5030397;28;20049;-66
2022/12/22 09:57:45;;;;;;;61.45;15.55;;;7.10;99.90;;;;;;5014467;28;20371;-66
2022/12/22 10:00:17;;;;;;;42.47;13.40;;;7.10;99.90;;;;;;5030787;28;20047;-66
2022/12/22 10:03:17;;;;;;;41.65;13.05;;;7.20;99.90;;;;;;5032475;28;20050;-66
2022/12/22 10:06:07;;;;;;;45.60;14.90;;;7.40;99.90;;;;;;5030514;28;20056;-66
2022/12/22 10:08:36;;;;;;;54.80;14.30;;;7.50;99.90;;;;;;5029809;28;20280;-66
2022/12/22 10:11:03;;;;;;;33.83;11.63;;;7.70;99.90;;;;;;5031803;28;20041;-66
2022/12/22 10:13:28;;;;;;;55.65;15.43;;;8.10;99.90;;;;;;5014018;28;20677;-66
2022/12/22 10:15:55;;;;;;;28.13;10.00;;;8.70;99.90;;;;;;5030351;28;20049;-66
2022/12/22 10:18:25;;;;;;;15.30;7.30;;;9.50;99.90;;;;;;5031834;28;20037;-67
2022/12/22 10:21:03;;;;;;;11.05;5.70;;;10.60;99.90;;;;;;5031827;28;20060;-67
2022/12/22 10:23:29;;;;;;;9.73;5.25;;;11.70;99.90;;;;;;5028732;28;20045;-67
2022/12/22 10:25:55;;;;;;;9.95;5.20;;;12.80;99.90;;;;;;5031838;28;20037;-67
2022/12/22 10:28:47;;;;;;;10.00;5.70;;;13.40;99.90;;;;;;5031549;28;20375;-67
2022/12/22 10:31:20;;;;;;;12.10;5.35;;;14.20;99.90;;;;;;5031358;28;20501;-67
2022/12/22 10:33:49;;;;;;;10.13;4.88;;;14.80;99.90;;;;;;5030277;28;20037;-66
2022/12/22 10:36:30;;;;;;;10.43;5.93;;;15.20;99.90;;;;;;5029882;28;20486;-70
2022/12/22 10:39:10;;;;;;;9.57;5.82;;;15.20;99.90;;;;;;5031197;28;20117;-69
2022/12/22 10:41:47;;;;;;;8.52;4.93;;;14.90;99.90;;;;;;5030218;28;20052;-68
2022/12/22 10:44:15;;;;;;;10.65;5.10;;;14.50;99.90;;;;;;5030028;28;20138;-68
2022/12/22 10:46:57;;;;;;;8.55;5.05;;;14.20;99.90;;;;;;5029924;28;20052;-68
2022/12/22 10:49:39;;;;;;;11.60;5.13;;;14.20;99.90;;;;;;5031467;28;20389;-68
2022/12/22 10:52:20;;;;;;;7.97;4.13;;;14.60;99.90;;;;;;5029507;28;20517;-68
2022/12/22 10:54:46;;;;;;;8.02;4.35;;;15.20;99.90;;;;;;5031356;28;20413;-68
2022/12/22 10:57:12;;;;;;;11.98;4.72;;;15.80;99.90;;;;;;5029982;28;20072;-68
2022/12/22 10:59:49;;;;;;;9.23;3.17;;;16.30;99.90;;;;;;5013484;28;20088;-69
2022/12/22 11:02:23;;;;;;;10.50;3.97;;;16.70;99.90;;;;;;5029656;28;20077;-69
2022/12/22 11:04:50;;;;;;;10.02;4.03;;;16.90;99.90;;;;;;5029554;28;20052;-68
2022/12/22 11:07:16;;;;;;;7.43;3.63;;;16.80;99.90;;;;;;5029331;28;20056;-69
2022/12/22 11:09:42;;;;;;;12.45;4.40;;;16.90;99.90;;;;;;5029890;28;20033;-69
2022/12/22 11:12:39;;;;;;;8.15;4.13;;;17.00;99.90;;;;;;5031051;28;20041;-69
2022/12/22 11:15:13;;;;;;;7.28;3.50;;;17.10;99.90;;;;;;5029504;28;20045;-69
2022/12/22 11:17:48;;;;;;;7.88;3.63;;;17.10;99.90;;;;;;5030961;28;20053;-69
2022/12/22 11:20:28;;;;;;;8.52;3.38;;;17.20;99.90;;;;;;5029370;28;20045;-69
2022/12/22 11:23:02;;;;;;;9.43;3.40;;;17.20;99.90;;;;;;5029344;28;20083;-69
2022/12/22 11:25:55;;;;;;;11.10;4.35;;;17.00;99.90;;;;;;5030639;28;20056;-69
2022/12/22 11:28:58;;;;;;;8.00;3.20;;;17.00;99.90;;;;;;5030730;28;20590;-70
2022/12/22 11:31:44;;;;;;;10.57;4.18;;;16.80;99.90;;;;;;5014857;28;20076;-70
2022/12/22 11:34:35;;;;;;;11.35;4.38;;;16.80;99.90;;;;;;5030341;28;20504;-70
2022/12/22 11:37:19;;;;;;;11.80;3.70;;;16.50;99.90;;;;;;5029700;28;20060;-70
2022/12/22 11:40:08;;;;;;;11.70;4.28;;;15.90;99.90;;;;;;5029111;28;20046;-70
2022/12/22 11:43:24;;;;;;;5.95;3.65;;;15.80;99.90;;;;;;5025326;28;20037;-69
2022/12/22 11:46:11;;;;;;;6.60;3.50;;;16.00;99.90;;;;;;4988308;28;20301;-69
2022/12/22 11:48:57;;;;;;;11.40;5.10;;;16.00;99.90;;;;;;4988323;28;20775;-69
2022/12/22 11:51:53;;;;;;;10.65;3.78;;;15.50;99.90;;;;;;4971717;28;20038;-70
2022/12/22 11:55:04;;;;;;;11.13;3.45;;;14.70;99.90;;;;;;4988155;28;20046;-70
2022/12/22 11:58:04;;;;;;;8.95;3.92;;;14.00;99.90;;;;;;4984238;28;20072;-71
2022/12/22 12:00:41;;;;;;;13.70;3.47;;;13.90;99.90;;;;;;4911212;29;20524;-70
2022/12/22 12:03:41;;;;;;;8.23;4.15;;;13.70;99.90;;;;;;4895953;29;20103;-70
2022/12/22 12:06:28;;;;;;;12.75;4.45;;;13.60;99.90;;;;;;4895348;29;20044;-70
2022/12/22 12:09:02;;;;;;;10.93;3.65;;;13.40;99.90;;;;;;4911177;29;20059;-71
2022/12/22 12:11:46;;;;;;;17.13;4.95;;;13.40;99.90;;;;;;4911378;29;20695;-71
2022/12/22 12:14:52;;;;;;;10.43;4.85;;;13.40;99.90;;;;;;4911439;29;20040;-70
2022/12/22 12:17:46;;;;;;;11.10;3.75;;;13.40;99.90;;;;;;4911344;29;20435;-70
2022/12/22 12:20:24;;;;;;;11.50;3.88;;;13.10;99.90;;;;;;4877409;29;20768;-70
2022/12/22 12:22:55;;;;;;;9.18;4.10;;;13.00;99.90;;;;;;4895400;29;20052;-70
2022/12/22 12:25:30;;;;;;;12.98;4.15;;;12.80;99.90;;;;;;4895033;29;20232;-70
2022/12/22 12:28:22;;;;;;;12.82;5.00;;;12.50;99.90;;;;;;4895373;29;20036;-70
2022/12/22 12:30:54;;;;;;;9.90;4.43;;;12.10;99.90;;;;;;4910939;29;20048;-70
2022/12/22 12:33:59;;;;;;;12.10;4.57;;;11.70;99.90;;;;;;4910639;29;20134;-70
2022/12/22 12:36:49;;;;;;;13.02;4.22;;;11.40;99.90;;;;;;4947770;28;20069;-71
2022/12/22 12:39:42;;;;;;;9.52;4.20;;;11.30;99.90;;;;;;4952662;28;20051;-71
2022/12/22 12:42:30;;;;;;;11.35;4.30;;;11.20;99.90;;;;;;4952056;28;20082;-71
2022/12/22 12:44:56;;;;;;;11.95;4.55;;;11.20;99.90;;;;;;4968266;28;20058;-71
2022/12/22 12:47:28;;;;;;;9.02;3.90;;;11.10;99.90;;;;;;4970161;28;20039;-71
2022/12/22 12:49:58;;;;;;;9.45;4.15;;;10.90;99.90;;;;;;4956428;28;20233;-71
2022/12/22 12:52:59;;;;;;;13.73;4.30;;;10.90;99.90;;;;;;4955977;28;20043;-71
2022/12/22 12:55:33;;;;;;;11.18;3.83;;;10.80;99.90;;;;;;4955769;28;20469;-71
2022/12/22 12:58:02;;;;;;;12.77;3.50;;;10.90;99.90;;;;;;5023938;28;20053;-71
2022/12/22 13:00:31;;;;;;;12.63;3.92;;;10.80;99.90;;;;;;5031888;28;20493;-71
2022/12/22 13:03:03;;;;;;;9.88;3.33;;;10.80;99.90;;;;;;5031711;28;20097;-71
2022/12/22 13:05:52;;;;;;;10.95;3.90;;;10.80;99.90;;;;;;5031768;28;20128;-71
2022/12/22 13:08:23;;;;;;;13.07;3.33;;;10.80;99.90;;;;;;5033113;28;20041;-71
2022/12/22 13:11:14;;;;;;;10.65;3.47;;;10.70;99.90;;;;;;5032209;28;20044;-70
2022/12/22 13:13:40;;;;;;;8.68;3.05;;;10.70;99.90;;;;;;5033218;28;20034;-70
2022/12/22 13:16:06;;;;;;;7.80;2.90;;;10.70;99.90;;;;;;5031794;28;20492;-71
2022/12/22 13:18:32;;;;;;;8.10;2.97;;;10.70;99.90;;;;;;5032552;28;20544;-71
2022/12/22 13:20:59;;;;;;;10.00;3.50;;;10.70;99.90;;;;;;5033001;28;20042;-71
2022/12/22 13:23:37;;;;;;;11.43;3.10;;;10.70;99.90;;;;;;5031757;28;20294;-70
2022/12/22 13:26:14;;;;;;;11.20;3.50;;;10.60;99.90;;;;;;5031552;28;20049;-71
2022/12/22 13:28:42;;;;;;;11.55;3.58;;;10.60;99.90;;;;;;5031580;28;20045;-71
2022/12/22 13:31:23;;;;;;;10.60;3.40;;;10.60;99.90;;;;;;5031358;28;20030;-71
2022/12/22 13:34:19;;;;;;;13.38;3.33;;;10.50;99.90;;;;;;5031361;28;20038;-71
2022/12/22 13:36:47;;;;;;;9.15;3.58;;;10.40;99.90;;;;;;5032473;28;20145;-71
2022/12/22 13:39:14;;;;;;;9.98;3.63;;;10.30;99.90;;;;;;5031363;28;20041;-71
2022/12/22 13:41:44;;;;;;;5.95;3.10;;;10.30;99.90;;;;;;5032680;28;20112;-71
2022/12/22 13:44:15;;;;;;;10.25;3.58;;;10.10;99.90;;;;;;5031202;28;20072;-71
2022/12/22 13:46:42;;;;;;;10.93;3.63;;;10.00;99.90;;;;;;5032499;28;20433;-71
2022/12/22 13:49:14;;;;;;;8.77;3.47;;;9.90;99.90;;;;;;5031138;28;20037;-71
2022/12/22 13:51:41;;;;;;;8.52;3.28;;;9.80;99.90;;;;;;5031294;28;20440;-71
2022/12/22 13:54:22;;;;;;;10.02;3.30;;;9.80;99.90;;;;;;5031366;28;20033;-71
2022/12/22 13:56:51;;;;;;;9.77;3.75;;;9.90;99.90;;;;;;5031187;28;20044;-72
2022/12/22 13:59:34;;;;;;;9.90;3.83;;;9.90;99.90;;;;;;5031124;28;20037;-71
2022/12/22 14:02:13;;;;;;;8.35;3.03;;;9.90;99.90;;;;;;5031972;28;20366;-71
2022/12/22 14:04:43;;;;;;;12.27;3.00;;;9.90;99.90;;;;;;5047516;28;20049;-71
2022/12/22 14:07:17;;;;;;;12.43;5.97;;;10.00;99.90;;;;;;5031054;28;20120;-71
2022/12/22 14:09:54;;;;;;;8.63;4.95;;;9.90;99.90;;;;;;5031048;28;20665;-71
2022/12/22 14:12:31;;;;;;;12.57;4.57;;;9.90;99.90;;;;;;5030633;28;20532;-72
2022/12/22 14:15:00;;;;;;;11.00;3.22;;;9.80;99.90;;;;;;5031732;28;20041;-71
2022/12/22 14:17:35;;;;;;;9.85;3.05;;;9.70;99.90;;;;;;5032119;28;20095;-71
2022/12/22 14:20:32;;;;;;;8.38;2.50;;;9.70;99.90;;;;;;5032149;28;20048;-72
2022/12/22 14:23:11;;;;;;;10.23;2.83;;;9.60;99.90;;;;;;5022758;28;20053;-71
2022/12/22 14:25:40;;;;;;;12.25;2.95;;;9.50;99.90;;;;;;5029357;28;20519;-71
2022/12/22 14:28:17;;;;;;;5.38;2.60;;;9.40;99.90;;;;;;5029572;28;20037;-71
2022/12/22 14:30:47;;;;;;;8.13;3.25;;;9.30;99.90;;;;;;5030232;28;20042;-71
2022/12/22 14:33:22;;;;;;;;;;;9.20;99.90;;;;;;5031405;28;20143;-71
2022/12/22 14:35:49;;;;;;;7.60;2.95;;;9.10;99.90;;;;;;5030286;28;19921;-71
2022/12/22 14:38:22;;;;;;;10.82;3.22;;;9.00;99.90;;;;;;5029176;28;20132;-71
2022/12/22 14:40:49;;;;;;;12.30;3.70;;;8.90;99.90;;;;;;5030876;28;20604;-72
2022/12/22 14:43:17;;;;;;;7.40;2.97;;;8.90;99.90;;;;;;5029201;28;20146;-71
2022/12/22 14:45:48;;;;;;;12.00;3.20;;;8.80;99.90;;;;;;5029820;28;20496;-71
2022/12/22 14:48:19;;;;;;;;;;;8.80;99.90;;;;;;5029609;28;20048;-71
2022/12/22 14:50:50;;;;;;;16.02;3.50;;;8.80;99.90;;;;;;5045612;28;20010;-71
2022/12/22 14:53:24;;;;;;;11.52;3.25;;;8.70;99.90;;;;;;5030784;28;20030;-72
2022/12/22 14:55:50;;;;;;;9.50;3.50;;;8.70;99.90;;;;;;5030513;28;20464;-71
2022/12/22 14:58:32;;;;;;;12.15;4.45;;;8.70;99.90;;;;;;5028694;28;20041;-72
2022/12/22 15:01:25;;;;;;;9.30;3.40;;;8.70;99.90;;;;;;5030432;28;20048;-71
2022/12/22 15:04:03;;;;;;;10.43;4.50;;;8.70;99.90;;;;;;5012676;28;20045;-71
2022/12/22 15:06:28;;;;;;;11.02;4.13;;;8.70;99.90;;;;;;5028572;28;20140;-70
2022/12/22 15:09:05;;;;;;;14.38;4.68;;;8.70;99.90;;;;;;5028390;28;20141;-71
2022/12/22 15:11:32;;;;;;;8.80;4.60;;;8.60;99.90;;;;;;5029550;28;20505;-71
2022/12/22 15:13:57;;;;;;;14.40;6.00;;;8.60;99.90;;;;;;5029657;28;20112;-71
2022/12/22 15:16:24;;;;;;;10.90;6.25;;;8.60;99.90;;;;;;5028367;28;20492;-71
2022/12/22 15:18:51;;;;;;;13.10;5.95;;;8.50;99.90;;;;;;5028657;28;20054;-71
2022/12/22 15:21:18;;;;;;;12.18;6.43;;;8.50;99.90;;;;;;5029952;28;20056;-71
2022/12/22 15:23:45;;;;;;;13.70;6.57;;;8.40;99.90;;;;;;5028367;28;20049;-71
2022/12/22 15:26:11;;;;;;;20.15;7.32;;;8.30;99.90;;;;;;5028387;28;20517;-71
2022/12/22 15:28:37;;;;;;;10.23;6.30;;;8.30;99.90;;;;;;5028001;28;20042;-71
2022/12/22 15:31:11;;;;;;;17.70;7.47;;;8.20;99.90;;;;;;5028435;28;20072;-71
2022/12/22 15:33:37;;;;;;;15.10;8.63;;;8.20;99.90;;;;;;5011990;28;20397;-71
2022/12/22 15:36:04;;;;;;;22.80;10.43;;;8.10;99.90;;;;;;5028036;28;20057;-71
2022/12/22 15:38:30;;;;;;;15.40;11.43;;;8.00;99.90;;;;;;5044984;28;20049;-71
2022/12/22 15:40:56;;;;;;;19.85;12.18;;;8.00;99.90;;;;;;5027947;28;20412;-71
2022/12/22 15:43:21;;;;;;;16.85;12.50;;;7.90;99.90;;;;;;5029038;28;20045;-71
2022/12/22 15:45:48;;;;;;;20.27;12.82;;;7.80;99.90;;;;;;5029693;28;20037;-71
2022/12/22 15:48:22;;;;;;;23.13;13.63;;;7.70;99.90;;;;;;5028088;28;20420;-67
2022/12/22 15:50:49;;;;;;;23.15;14.55;;;7.70;99.90;;;;;;5029510;28;20048;-67
2022/12/22 15:53:18;;;;;;;22.48;14.15;;;7.70;99.90;;;;;;5027827;28;20124;-68
2022/12/22 15:55:46;;;;;;;21.20;14.13;;;7.60;99.90;;;;;;5027720;28;20056;-67
2022/12/22 15:58:17;;;;;;;23.58;15.30;;;7.60;99.90;;;;;;5027602;28;20037;-70
2022/12/22 16:00:42;;;;;;;22.92;14.48;;;7.50;99.90;;;;;;5027970;28;20041;-69
2022/12/22 16:03:09;;;;;;;21.33;14.60;;;7.60;99.90;;;;;;5027822;28;20139;-68
2022/12/22 16:05:36;;;;;;;26.00;15.88;;;7.50;99.90;;;;;;5027627;28;20136;-69
2022/12/22 16:08:03;;;;;;;28.85;17.30;;;7.60;99.90;;;;;;5027644;28;20060;-69
2022/12/22 16:10:31;;;;;;;21.98;13.93;;;7.50;99.90;;;;;;5027483;28;20045;-69
2022/12/22 16:13:01;;;;;;;21.80;15.10;;;7.50;99.90;;;;;;5027883;28;20427;-70
2022/12/22 16:15:30;;;;;;;29.38;16.27;;;7.50;99.90;;;;;;5028247;28;20053;-69
2022/12/22 16:17:56;;;;;;;28.48;18.27;;;7.50;99.90;;;;;;5030095;28;20164;-70
2022/12/22 16:20:24;;;;;;;34.67;19.50;;;7.50;99.90;;;;;;5028512;28;20041;-70
2022/12/22 16:22:52;;;;;;;26.27;18.55;;;7.60;99.90;;;;;;5027532;28;20564;-70
2022/12/22 16:25:38;;;;;;;32.67;18.15;;;7.50;99.90;;;;;;5029183;28;20042;-69
2022/12/22 16:28:05;;;;;;;29.42;19.13;;;7.50;99.90;;;;;;5028504;28;20048;-70
2022/12/22 16:30:33;;;;;;;31.25;18.98;;;7.50;99.90;;;;;;5029875;28;20387;-70
2022/12/22 16:32:59;;;;;;;27.73;15.07;;;7.40;99.90;;;;;;5028652;28;20134;-70
2022/12/22 16:35:28;;;;;;;31.42;16.60;;;7.40;99.90;;;;;;5028478;28;20054;-70
2022/12/22 16:37:58;;;;;;;29.58;16.85;;;7.40;99.90;;;;;;5029975;28;20048;-70